Time;durP1;ratioP1;P1;durP2;ratioP2;P2;SDS_P1;SDS_P2;PMS_P1;PMS_P2;Temp;Humidity;BMP_temperature;BMP_pressure;BME280_temperature;BME280_humidity;BME280_pressure;Samples;Min_cycle;Max_cycle;Signal;HPM_P1;HPM_P2
2023/10/06 00:01:33;;;;;;;21.38;7.25;;;;;;;11.34;100.00;102385.50;5073822;28;20033;-61
2023/10/06 00:04:06;;;;;;;19.55;6.30;;;;;;;11.33;100.00;102386.38;5073555;28;20055;-63
2023/10/06 00:06:32;;;;;;;20.23;6.97;;;;;;;11.29;100.00;102393.31;5073475;28;20024;-68
2023/10/06 00:08:58;;;;;;;20.67;6.93;;;;;;;11.33;100.00;102386.38;5073521;28;20039;-68
2023/10/06 00:11:31;;;;;;;21.50;7.15;;;;;;;11.35;100.00;102395.25;5073615;28;20468;-68
2023/10/06 00:14:00;;;;;;;20.98;7.20;;;;;;;11.36;100.00;102394.41;5073483;28;20025;-68
2023/10/06 00:16:39;;;;;;;18.90;6.88;;;;;;;11.31;100.00;102388.06;5073308;28;20025;-68
2023/10/06 00:19:13;;;;;;;21.25;7.10;;;;;;;11.32;100.00;102384.59;5073347;28;20111;-69
2023/10/06 00:21:44;;;;;;;21.48;6.72;;;;;;;11.32;100.00;102381.94;5069612;28;20476;-67
2023/10/06 00:24:12;;;;;;;19.58;6.72;;;;;;;11.32;100.00;102395.16;5069826;28;20417;-68
2023/10/06 00:26:38;;;;;;;20.23;7.10;;;;;;;11.27;100.00;102399.44;5069282;28;20031;-68
2023/10/06 00:29:10;;;;;;;19.88;7.00;;;;;;;11.29;100.00;102393.31;5073308;28;20028;-68
2023/10/06 00:31:35;;;;;;;20.50;6.78;;;;;;;11.30;100.00;102389.84;5073273;28;20029;-68
2023/10/06 00:34:01;;;;;;;20.33;6.68;;;;;;;11.29;100.00;102389.81;5073130;28;20037;-69
2023/10/06 00:36:29;;;;;;;21.95;7.20;;;;;;;11.24;100.00;102383.47;5072788;28;20076;-69
2023/10/06 00:38:55;;;;;;;20.17;7.00;;;;;;;11.29;100.00;102395.09;5073028;28;20021;-67
2023/10/06 00:41:21;;;;;;;20.25;6.93;;;;;;;11.21;100.00;102386.03;5073030;28;20039;-69
2023/10/06 00:43:48;;;;;;;19.58;6.70;;;;;;;11.21;100.00;102386.03;5072863;28;20071;-69
2023/10/06 00:46:15;;;;;;;20.25;6.80;;;;;;;11.18;100.00;102385.97;5073007;28;20020;-69
2023/10/06 00:48:41;;;;;;;20.13;7.07;;;;;;;11.16;100.00;102385.94;5073100;28;20105;-69
2023/10/06 00:51:10;;;;;;;20.70;7.00;;;;;;;11.18;100.00;102384.22;5073058;28;20025;-68
2023/10/06 00:53:36;;;;;;;21.45;7.40;;;;;;;11.13;100.00;102376.16;5073225;28;20024;-69
2023/10/06 00:56:04;;;;;;;19.77;6.95;;;;;;;11.12;100.00;102384.06;5072758;28;20051;-69
2023/10/06 00:58:34;;;;;;;21.48;6.70;;;;;;;11.09;100.00;102384.84;5072711;28;20584;-69
2023/10/06 01:01:05;;;;;;;21.02;6.85;;;;;;;11.11;100.00;102383.16;5072850;28;20024;-68
2023/10/06 01:03:38;;;;;;;21.30;6.82;;;;;;;11.11;100.00;102377.88;5072604;28;20029;-69
2023/10/06 01:06:08;;;;;;;20.25;6.47;;;;;;;11.09;100.00;102365.44;5072604;28;20031;-69
2023/10/06 01:08:33;;;;;;;20.27;7.07;;;;;;;11.06;100.00;102368.91;5071466;28;20514;-69
2023/10/06 01:11:11;;;;;;;21.63;7.00;;;;;;;11.03;100.00;102368.81;5072820;28;20024;-69
2023/10/06 01:13:53;;;;;;;21.75;6.85;;;;;;;11.02;100.00;102366.13;5072593;28;20119;-69
2023/10/06 01:16:22;;;;;;;18.67;6.50;;;;;;;10.99;100.00;102357.28;5069952;28;20032;-69
2023/10/06 01:18:50;;;;;;;21.05;6.88;;;;;;;11.01;100.00;102351.09;5072519;28;20035;-68
2023/10/06 01:21:28;;;;;;;20.65;6.82;;;;;;;11.03;100.00;102350.31;5072887;28;20036;-68
2023/10/06 01:23:58;;;;;;;22.20;7.13;;;;;;;10.94;100.00;102348.31;5072512;28;20105;-68
2023/10/06 01:26:24;;;;;;;20.90;6.68;;;;;;;10.96;100.00;102356.28;5072371;28;20029;-68
2023/10/06 01:28:51;;;;;;;21.10;6.90;;;;;;;10.93;100.00;102351.78;5072442;28;20032;-69
2023/10/06 01:31:19;;;;;;;20.48;7.13;;;;;;;10.92;100.00;102343.81;5072612;28;20101;-68
2023/10/06 01:33:45;;;;;;;19.67;6.90;;;;;;;10.90;100.00;102349.06;5072340;28;20536;-67
2023/10/06 01:36:13;;;;;;;20.90;7.20;;;;;;;10.87;100.00;102350.75;5072128;28;20032;-67
2023/10/06 01:38:43;;;;;;;20.80;7.28;;;;;;;10.85;100.00;102357.72;5068680;28;20025;-66
2023/10/06 01:41:09;;;;;;;21.27;7.35;;;;;;;10.86;100.00;102354.25;5068368;28;20159;-67
2023/10/06 01:43:35;;;;;;;24.00;7.10;;;;;;;10.84;100.00;102353.31;5072174;28;20061;-67
2023/10/06 01:46:00;;;;;;;21.15;6.93;;;;;;;10.84;100.00;102348.03;5072439;28;20071;-67
2023/10/06 01:48:30;;;;;;;19.88;7.38;;;;;;;10.87;100.00;102334.88;5072089;28;20037;-66
2023/10/06 01:50:55;;;;;;;21.73;7.20;;;;;;;10.87;100.00;102338.41;5072164;28;20044;-65
2023/10/06 01:53:21;;;;;;;20.08;7.00;;;;;;;10.90;100.00;102342.91;5072395;28;20440;-67
2023/10/06 01:55:52;;;;;;;21.27;7.30;;;;;;;10.93;100.00;102335.03;5072141;28;20029;-66
2023/10/06 01:58:18;;;;;;;20.92;6.95;;;;;;;10.87;100.00;102334.88;5072116;28;20036;-66
2023/10/06 02:00:47;;;;;;;23.35;6.82;;;;;;;10.88;100.00;102329.63;5072376;28;20040;-66
2023/10/06 02:03:16;;;;;;;20.83;7.30;;;;;;;10.93;100.00;102330.63;5075177;28;20040;-66
2023/10/06 02:05:42;;;;;;;20.70;7.30;;;;;;;10.88;100.00;102324.34;5076251;28;20366;-66
2023/10/06 02:08:14;;;;;;;20.45;7.40;;;;;;;10.90;100.00;102329.66;5071791;28;20100;-66
2023/10/06 02:10:42;;;;;;;20.55;7.25;;;;;;;10.90;100.00;102330.56;5072216;28;20143;-66
2023/10/06 02:13:08;;;;;;;21.63;7.63;;;;;;;10.92;100.00;102333.25;5071663;28;20039;-66
2023/10/06 02:15:33;;;;;;;22.27;7.50;;;;;;;10.87;100.00;102330.47;5074511;28;20024;-66
2023/10/06 02:17:59;;;;;;;20.70;7.32;;;;;;;10.92;100.00;102347.38;5075944;28;20029;-66
2023/10/06 02:22:54;;;;;;;21.70;7.38;;;;;;;10.85;100.00;102347.16;5075835;28;20047;-66
2023/10/06 02:25:23;;;;;;;21.10;7.22;;;;;;;10.88;100.00;102344.59;5075705;28;20044;-65
2023/10/06 02:27:50;;;;;;;21.88;7.30;;;;;;;10.80;100.00;102340.00;5075561;28;20032;-63
2023/10/06 02:30:18;;;;;;;20.50;7.40;;;;;;;10.78;100.00;102340.81;5075461;28;20029;-61
2023/10/06 02:32:45;;;;;;;22.27;7.57;;;;;;;10.77;100.00;102336.38;5075619;28;20024;-63
2023/10/06 02:35:12;;;;;;;21.02;7.10;;;;;;;10.77;100.00;102339.91;5075433;28;20059;-62
2023/10/06 02:37:39;;;;;;;21.27;7.47;;;;;;;10.75;100.00;102351.31;5075026;28;20040;-62
2023/10/06 02:40:11;;;;;;;20.27;7.18;;;;;;;10.78;100.00;102336.41;5075461;28;20031;-61
2023/10/06 02:42:51;;;;;;;21.17;7.05;;;;;;;10.73;100.00;102327.47;5075586;28;20025;-62
2023/10/06 02:45:20;;;;;;;20.00;7.68;;;;;;;10.70;100.00;102335.28;5072320;28;20372;-62
2023/10/06 02:47:49;;;;;;;21.15;7.13;;;;;;;10.67;100.00;102331.69;5075075;28;20063;-62
2023/10/06 02:50:20;;;;;;;21.58;7.47;;;;;;;10.59;100.00;102326.19;5075645;28;20384;-62
2023/10/06 02:52:47;;;;;;;21.60;7.23;;;;;;;10.59;100.00;102335.00;5075329;28;20110;-62
2023/10/06 02:55:30;;;;;;;21.67;7.45;;;;;;;10.58;100.00;102334.97;5075017;28;20032;-62
2023/10/06 02:57:57;;;;;;;20.63;7.30;;;;;;;10.52;100.00;102334.81;5073556;28;20025;-62
2023/10/06 03:02:56;;;;;;;19.52;7.22;;;;;;;10.50;100.00;102324.19;5074995;28;20048;-62
2023/10/06 03:05:32;;;;;;;22.15;7.82;;;;;;;10.47;100.00;102329.41;5074885;28;20032;-61
2023/10/06 03:07:58;;;;;;;20.60;7.30;;;;;;;10.51;100.00;102325.06;5073786;28;20116;-61
2023/10/06 03:10:27;;;;;;;21.90;7.53;;;;;;;10.51;100.00;102311.84;5074914;28;20032;-61
2023/10/06 03:12:57;;;;;;;21.95;7.50;;;;;;;10.51;100.00;102315.38;5074366;28;20034;-67
2023/10/06 03:15:57;;;;;;;22.88;7.40;;;;;;;10.52;100.00;102306.59;5074110;28;20024;-66
2023/10/06 03:18:16;;;;;;;20.80;7.47;;;;;;;10.49;100.00;102311.81;5069080;28;20111;-66
2023/10/06 03:20:48;;;;;;;21.58;7.38;;;;;;;10.50;100.00;102312.69;5074684;28;20024;-66
2023/10/06 03:23:31;;;;;;;21.05;7.70;;;;;;;10.48;100.00;102311.78;5071298;28;20120;-66
2023/10/06 03:25:56;;;;;;;20.05;7.10;;;;;;;10.45;100.00;102316.09;5074749;28;20353;-66
2023/10/06 03:28:28;;;;;;;22.27;7.15;;;;;;;10.48;100.00;102322.34;5074390;28;20149;-66
2023/10/06 03:30:54;;;;;;;20.67;6.78;;;;;;;10.47;100.00;102324.09;5074367;28;20054;-66
2023/10/06 03:33:19;;;;;;;20.60;7.05;;;;;;;10.48;100.00;102322.34;5074767;28;20430;-66
2023/10/06 03:35:45;;;;;;;21.63;7.20;;;;;;;10.41;100.00;102313.34;5074391;28;20472;-66
2023/10/06 03:40:46;;;;;;;21.05;6.75;;;;;;;10.39;100.00;102317.69;5070860;28;20037;-66
2023/10/06 03:43:15;;;;;;;21.08;7.05;;;;;;;10.38;100.00;102319.47;5070483;28;20518;-66
2023/10/06 03:45:42;;;;;;;22.08;7.05;;;;;;;10.40;100.00;102312.44;5070233;28;20430;-67
2023/10/06 03:48:12;;;;;;;20.15;6.82;;;;;;;10.43;100.00;102312.53;5074235;28;20036;-66
2023/10/06 03:50:38;;;;;;;21.50;6.68;;;;;;;10.42;100.00;102309.84;5074137;28;20029;-66
2023/10/06 03:53:08;;;;;;;20.52;6.80;;;;;;;10.48;100.00;102314.41;5073926;28;20028;-66
2023/10/06 03:55:45;;;;;;;20.08;6.97;;;;;;;10.45;100.00;102300.25;5073847;28;20033;-66
2023/10/06 03:58:14;;;;;;;21.50;7.25;;;;;;;10.48;100.00;102291.50;5069872;28;20111;-66
2023/10/06 04:00:40;;;;;;;21.13;7.32;;;;;;;10.46;100.00;102285.28;5070018;28;20020;-66
2023/10/06 04:03:13;;;;;;;20.20;6.70;;;;;;;10.42;100.00;102279.00;5073521;28;20033;-66
2023/10/06 04:05:38;;;;;;;;;;;;;;;10.39;100.00;102284.22;5074311;28;20372;-66
2023/10/06 04:08:13;;;;;;;19.80;6.80;;;;;;;10.45;100.00;102283.50;5073815;28;19927;-66
2023/10/06 04:10:40;;;;;;;19.35;6.47;;;;;;;10.47;100.00;102281.81;5069686;28;20063;-66
2023/10/06 04:13:08;;;;;;;19.08;6.30;;;;;;;10.46;100.00;102270.31;5073766;28;20376;-65
2023/10/06 04:15:38;;;;;;;21.80;6.80;;;;;;;10.48;100.00;102278.28;5073459;28;20021;-66
2023/10/06 04:18:05;;;;;;;20.75;6.70;;;;;;;10.39;100.00;102273.63;5073619;28;20070;-66
2023/10/06 04:20:32;;;;;;;19.60;6.50;;;;;;;10.37;100.00;102280.66;5072080;28;20127;-66
2023/10/06 04:23:02;;;;;;;20.58;6.45;;;;;;;10.42;100.00;102280.78;5073226;28;20032;-66
2023/10/06 04:25:27;;;;;;;19.88;6.53;;;;;;;10.38;100.00;102282.44;5073118;28;20024;-66
2023/10/06 04:27:52;;;;;;;20.17;6.43;;;;;;;10.38;100.00;102293.03;5073195;28;20059;-66
2023/10/06 04:30:18;;;;;;;22.13;6.50;;;;;;;10.35;100.00;102297.31;5073256;28;20373;-66
2023/10/06 04:32:44;;;;;;;20.88;6.75;;;;;;;10.34;100.00;102296.41;5072156;28;20414;-66
2023/10/06 04:35:19;;;;;;;20.60;6.50;;;;;;;10.41;100.00;102294.81;5073233;28;20036;-61
2023/10/06 04:37:47;;;;;;;20.48;6.43;;;;;;;10.33;100.00;102289.31;5069451;28;20399;-62
2023/10/06 04:40:17;;;;;;;19.17;5.88;;;;;;;10.30;100.00;102289.22;5073457;28;20423;-61
2023/10/06 04:42:42;;;;;;;20.38;6.35;;;;;;;10.28;100.00;102285.63;5069467;28;20103;-61
2023/10/06 04:45:12;;;;;;;19.08;6.30;;;;;;;10.26;100.00;102279.41;5073020;28;20171;-62
2023/10/06 04:47:41;;;;;;;18.73;6.03;;;;;;;10.21;100.00;102274.00;5072867;28;20032;-62
2023/10/06 04:50:11;;;;;;;18.13;5.63;;;;;;;10.26;100.00;102276.75;5073044;28;20114;-60
2023/10/06 04:52:40;;;;;;;20.23;6.03;;;;;;;10.27;100.00;102268.00;5072848;28;20036;-61
2023/10/06 04:55:11;;;;;;;19.42;6.20;;;;;;;10.28;100.00;102280.34;5072756;28;20502;-61
2023/10/06 04:57:37;;;;;;;19.87;6.50;;;;;;;10.24;100.00;102273.19;5073075;28;20020;-62
2023/10/06 05:00:06;;;;;;;18.83;6.05;;;;;;;10.23;100.00;102271.41;5072647;28;20360;-62
2023/10/06 05:02:34;;;;;;;19.60;6.30;;;;;;;10.22;100.00;102267.88;5072659;28;20021;-61
2023/10/06 05:05:00;;;;;;;20.85;6.32;;;;;;;10.22;100.00;102272.22;5072902;28;20154;-61
2023/10/06 05:07:26;;;;;;;20.35;5.88;;;;;;;10.23;100.00;102266.09;5072885;28;20036;-61
2023/10/06 05:09:55;;;;;;;18.80;5.60;;;;;;;10.28;100.00;102275.03;5072627;28;20024;-61
2023/10/06 05:12:20;;;;;;;19.40;6.00;;;;;;;10.27;100.00;102268.00;5072680;28;20098;-61
2023/10/06 05:14:46;;;;;;;19.58;6.07;;;;;;;10.31;100.00;102269.88;5072970;28;20029;-61
2023/10/06 05:17:16;;;;;;;18.95;5.45;;;;;;;10.35;100.00;102262.94;5072612;28;20399;-61
2023/10/06 05:19:42;;;;;;;19.60;6.18;;;;;;;10.35;100.00;102258.53;5068975;28;20442;-66
2023/10/06 05:22:07;;;;;;;18.75;5.75;;;;;;;10.34;100.00;102269.06;5072546;28;20060;-66
2023/10/06 05:24:33;;;;;;;19.05;5.63;;;;;;;10.32;100.00;102261.06;5072488;28;20464;-67
2023/10/06 05:26:58;;;;;;;19.25;6.03;;;;;;;10.39;100.00;102268.34;5072674;28;20379;-67
2023/10/06 05:29:25;;;;;;;18.73;6.07;;;;;;;10.38;100.00;102270.97;5072809;28;20031;-66
2023/10/06 05:31:50;;;;;;;19.30;5.50;;;;;;;10.34;100.00;102259.41;5072394;28;20461;-67
2023/10/06 05:34:17;;;;;;;20.95;5.97;;;;;;;10.30;100.00;102262.78;5072901;28;20043;-66
2023/10/06 05:36:43;;;;;;;19.45;5.78;;;;;;;10.29;100.00;102261.00;5072900;28;20138;-66
2023/10/06 05:39:11;;;;;;;19.13;5.45;;;;;;;10.29;100.00;102261.91;5076661;28;20383;-66
2023/10/06 05:41:39;;;;;;;19.30;5.70;;;;;;;10.26;100.00;102258.25;5076581;28;20025;-66
2023/10/06 05:44:08;;;;;;;19.95;6.00;;;;;;;10.27;100.00;102260.94;5076834;28;20430;-66
2023/10/06 05:46:34;;;;;;;21.42;5.82;;;;;;;10.30;100.00;102254.84;5076541;28;20028;-66
2023/10/06 05:49:03;;;;;;;19.30;5.88;;;;;;;10.26;100.00;102256.50;5072294;28;20033;-66
2023/10/06 05:51:28;;;;;;;19.30;5.68;;;;;;;10.24;100.00;102268.78;5076097;28;20480;-66
2023/10/06 05:53:56;;;;;;;21.48;5.90;;;;;;;10.23;100.00;102267.00;5075781;28;20145;-67
2023/10/06 05:56:23;;;;;;;19.05;5.70;;;;;;;10.26;100.00;102276.75;5075906;28;20035;-65
2023/10/06 05:58:49;;;;;;;19.70;5.78;;;;;;;10.25;100.00;102267.94;5076123;28;20504;-64
2023/10/06 06:01:18;;;;;;;20.50;5.95;;;;;;;10.30;100.00;102268.06;5075981;28;20082;-66
2023/10/06 06:03:47;;;;;;;19.83;5.72;;;;;;;10.33;100.00;102260.22;5075696;28;20467;-65
2023/10/06 06:06:21;;;;;;;19.80;5.72;;;;;;;10.28;100.00;102259.19;5075880;28;20043;-64
2023/10/06 06:08:47;;;;;;;19.65;5.75;;;;;;;10.32;100.00;102260.19;5075707;28;20031;-65
2023/10/06 06:11:13;;;;;;;19.35;6.03;;;;;;;10.31;100.00;102264.59;5075524;28;20037;-66
2023/10/06 06:13:38;;;;;;;21.65;6.07;;;;;;;10.36;100.00;102265.63;5075871;28;20036;-66
2023/10/06 06:16:05;;;;;;;20.15;6.13;;;;;;;10.42;100.00;102262.25;5075723;28;20380;-66
2023/10/06 06:18:33;;;;;;;20.35;5.80;;;;;;;10.49;100.00;102265.97;5075304;28;20056;-67
2023/10/06 06:21:02;;;;;;;21.08;6.13;;;;;;;10.54;100.00;102264.34;5075659;28;20028;-66
2023/10/06 06:23:28;;;;;;;20.00;5.80;;;;;;;10.59;100.00;102273.31;5075193;28;20044;-65
2023/10/06 06:25:53;;;;;;;20.45;5.93;;;;;;;10.61;100.00;102272.47;5075381;28;20028;-66
2023/10/06 06:28:19;;;;;;;22.00;6.20;;;;;;;10.64;100.00;102267.28;5075594;28;20480;-66
2023/10/06 06:30:47;;;;;;;20.08;6.15;;;;;;;10.67;100.00;102271.75;5074967;28;20120;-65
2023/10/06 06:33:17;;;;;;;20.25;6.20;;;;;;;10.71;100.00;102276.25;5075183;28;20035;-66
2023/10/06 06:35:43;;;;;;;20.02;5.97;;;;;;;10.72;100.00;102272.78;5075425;28;20059;-66
2023/10/06 06:38:12;;;;;;;19.67;5.75;;;;;;;10.75;100.00;102277.25;5073564;28;20095;-66
2023/10/06 06:40:38;;;;;;;20.88;6.25;;;;;;;10.78;100.00;102278.22;5072931;28;20396;-66
2023/10/06 06:43:09;;;;;;;19.90;5.90;;;;;;;10.84;100.00;102276.59;5072711;28;20037;-68
2023/10/06 06:45:39;;;;;;;20.40;5.95;;;;;;;10.90;100.00;102271.47;5075164;28;20059;-66
2023/10/06 06:48:09;;;;;;;19.58;5.80;;;;;;;10.92;100.00;102270.66;5074717;28;20475;-64
2023/10/06 06:50:36;;;;;;;21.42;5.82;;;;;;;10.92;100.00;102267.09;5074954;28;20099;-66
2023/10/06 06:53:01;;;;;;;20.58;6.18;;;;;;;10.92;100.00;102277.69;5075059;28;20056;-66
2023/10/06 06:55:26;;;;;;;19.42;5.85;;;;;;;10.97;100.00;102276.06;5074447;28;20109;-66
2023/10/06 06:57:53;;;;;;;19.50;5.90;;;;;;;11.02;100.00;102274.41;5074772;28;20379;-70
2023/10/06 07:00:21;;;;;;;20.02;6.00;;;;;;;11.05;100.00;102271.84;5074981;28;20024;-67
2023/10/06 07:02:50;;;;;;;20.70;5.68;;;;;;;11.08;100.00;102271.94;5074724;28;20037;-65
2023/10/06 07:05:17;;;;;;;20.67;5.90;;;;;;;11.14;100.00;102272.09;5074784;28;20064;-60
2023/10/06 07:07:43;;;;;;;19.70;5.93;;;;;;;11.16;100.00;102270.34;5073175;28;20538;-60
2023/10/06 07:10:22;;;;;;;18.30;5.88;;;;;;;11.22;100.00;102263.44;5074745;28;20024;-62
2023/10/06 07:12:51;;;;;;;20.10;5.75;;;;;;;11.26;100.00;102260.91;5074819;28;20108;-62
2023/10/06 07:15:18;;;;;;;18.55;5.40;;;;;;;11.31;100.00;102266.28;5074436;28;20025;-63
2023/10/06 07:17:45;;;;;;;19.67;5.63;;;;;;;11.39;100.00;102266.47;5074292;28;20056;-62
2023/10/06 07:20:14;;;;;;;18.55;5.75;;;;;;;11.45;100.00;102266.63;5063650;28;20031;-61
2023/10/06 07:22:46;;;;;;;20.65;6.00;;;;;;;11.49;100.00;102264.09;5071870;28;20040;-64
2023/10/06 07:25:15;;;;;;;18.70;5.80;;;;;;;11.60;100.00;102266.09;5069120;28;20029;-61
2023/10/06 07:27:44;;;;;;;20.08;5.45;;;;;;;11.73;100.00;102267.25;5069667;28;20173;-61
2023/10/06 07:30:10;;;;;;;19.90;5.43;;;;;;;11.82;100.00;102260.41;5070427;28;20406;-60
2023/10/06 07:32:40;;;;;;;18.67;5.53;;;;;;;11.91;100.00;102264.09;5070685;28;20464;-62
2023/10/06 07:35:08;;;;;;;18.05;5.50;;;;;;;12.05;100.00;102269.75;5070895;28;20100;-61
2023/10/06 07:37:33;;;;;;;19.67;5.57;;;;;;;12.19;100.00;102263.84;5069128;28;20090;-61
2023/10/06 07:40:04;;;;;;;19.42;5.75;;;;;;;12.29;100.00;102269.34;5074031;28;20101;-61
2023/10/06 07:42:29;;;;;;;19.02;5.40;;;;;;;12.41;100.00;102274.91;5072162;28;20052;-61
2023/10/06 07:44:55;;;;;;;18.10;5.25;;;;;;;12.52;100.00;102280.38;5074231;28;20055;-61
2023/10/06 07:47:24;;;;;;;18.85;5.50;;;;;;;12.56;100.00;102280.47;5073763;28;20047;-62
2023/10/06 07:49:50;;;;;;;18.77;5.32;;;;;;;12.65;100.00;102287.72;5074278;28;20078;-62
2023/10/06 07:52:17;;;;;;;19.83;5.30;;;;;;;12.81;100.00;102291.53;5069796;28;20478;-62
2023/10/06 07:54:43;;;;;;;19.40;5.28;;;;;;;12.98;100.00;102290.97;5073421;28;20056;-62
2023/10/06 07:57:10;;;;;;;20.30;5.30;;;;;;;13.13;100.00;102307.13;5072679;28;20487;-69
2023/10/06 07:59:36;;;;;;;19.15;5.38;;;;;;;13.25;100.00;102306.44;5073291;28;20039;-69
2023/10/06 08:02:03;;;;;;;19.55;5.00;;;;;;;13.41;100.00;102307.63;5073736;28;20430;-69
2023/10/06 08:04:28;;;;;;;17.73;5.13;;;;;;;13.62;100.00;102298.22;5073775;28;20028;-69
2023/10/06 08:06:54;;;;;;;19.30;5.40;;;;;;;13.79;100.00;102299.34;5072166;28;20029;-65
2023/10/06 08:09:21;;;;;;;19.60;5.38;;;;;;;13.94;100.00;102294.22;5072776;28;20471;-68
2023/10/06 08:11:47;;;;;;;18.05;5.10;;;;;;;14.09;100.00;102282.91;5072325;28;20024;-68
2023/10/06 08:14:13;;;;;;;19.90;5.30;;;;;;;14.20;100.00;102284.78;5073163;28;20028;-67
2023/10/06 08:16:40;;;;;;;18.60;4.75;;;;;;;14.34;100.00;102280.53;5073275;28;20033;-71
2023/10/06 08:19:05;;;;;;;18.85;5.30;;;;;;;14.62;100.00;102287.09;5073430;28;20483;-69
2023/10/06 08:21:31;;;;;;;20.88;5.22;;;;;;;14.86;100.00;102282.88;5073192;28;20032;-69
2023/10/06 08:23:56;;;;;;;18.65;5.10;;;;;;;15.11;100.00;102289.31;5073070;28;20522;-69
2023/10/06 08:26:22;;;;;;;19.20;5.10;;;;;;;15.26;100.00;102277.91;5072837;28;20032;-69
2023/10/06 08:28:49;;;;;;;18.50;4.75;;;;;;;15.50;100.00;102285.16;5073396;28;20111;-68
2023/10/06 08:31:17;;;;;;;17.60;4.60;;;;;;;15.75;100.00;102284.44;5072762;28;20420;-63
2023/10/06 08:33:45;;;;;;;19.35;5.25;;;;;;;15.93;100.00;102279.25;5073162;28;20056;-63
2023/10/06 08:36:10;;;;;;;18.70;4.72;;;;;;;15.94;100.00;102285.47;5073053;28;20025;-64
2023/10/06 08:38:36;;;;;;;17.88;5.20;;;;;;;15.82;100.00;102286.28;5072341;28;20056;-66
2023/10/06 08:41:04;;;;;;;18.77;5.15;;;;;;;15.88;100.00;102286.31;5072990;28;20029;-65
2023/10/06 08:43:32;;;;;;;18.95;5.40;;;;;;;16.03;100.00;102286.41;5072850;28;20029;-64
2023/10/06 08:46:00;;;;;;;17.50;4.50;;;;;;;16.32;100.00;102287.38;5069031;28;20031;-63
2023/10/06 08:48:38;;;;;;;18.98;4.63;;;;;;;16.53;100.00;102282.13;5068949;28;20028;-62
2023/10/06 08:51:11;;;;;;;19.45;4.90;;;;;;;16.43;100.00;102282.09;5069302;28;20480;-63
2023/10/06 08:53:39;;;;;;;18.25;4.63;;;;;;;16.51;100.00;102288.34;5072699;28;20035;-62
2023/10/06 08:56:05;;;;;;;19.23;4.70;;;;;;;16.75;100.00;102282.16;5072718;28;20032;-62
2023/10/06 08:58:30;;;;;;;19.80;5.38;;;;;;;16.85;100.00;102299.09;5072941;28;20212;-62
2023/10/06 09:00:59;;;;;;;17.90;4.75;;;;;;;16.82;100.00;102283.03;5072600;28;20483;-62
2023/10/06 09:03:25;;;;;;;18.75;4.90;;;;;;;16.66;100.00;102293.72;5072416;28;20032;-62
2023/10/06 09:05:50;;;;;;;18.50;4.90;;;;;;;16.56;100.00;102289.25;5072984;28;20035;-63
2023/10/06 09:08:17;;;;;;;18.45;5.15;;;;;;;16.54;100.00;102297.25;5072492;28;20032;-65
2023/10/06 09:10:52;;;;;;;20.83;5.20;;;;;;;16.70;100.00;102305.28;5072276;28;20074;-65
2023/10/06 09:13:19;;;;;;;18.17;5.40;;;;;;;16.93;100.00;102292.00;5071880;28;20050;-64
2023/10/06 09:16:06;;;;;;;19.08;5.20;;;;;;;17.23;100.00;102295.59;5072395;28;20032;-62
2023/10/06 09:18:34;;;;;;;19.05;4.93;;;;;;;17.62;100.00;102296.44;5069342;28;20044;-64
2023/10/06 09:21:19;;;;;;;19.15;5.25;;;;;;;17.74;100.00;102304.41;5064770;28;20059;-63
2023/10/06 09:23:46;;;;;;;18.33;4.95;;;;;;;17.58;100.00;102278.59;5068152;28;20032;-66
2023/10/06 09:26:16;;;;;;;18.23;5.00;;;;;;;17.55;100.00;102294.66;5068551;28;20020;-63
2023/10/06 09:28:53;;;;;;;18.05;5.28;;;;;;;17.65;100.00;102282.13;5066375;28;20033;-64
2023/10/06 09:31:38;;;;;;;19.08;5.15;;;;;;;17.93;100.00;102272.31;5072336;28;20468;-65
2023/10/06 09:34:07;;;;;;;18.08;5.00;;;;;;;18.07;100.00;102270.47;5067145;28;20025;-63
2023/10/06 09:36:36;;;;;;;18.30;4.78;;;;;;;18.21;100.00;102273.06;5071921;28;20464;-64
2023/10/06 09:39:03;;;;;;;18.92;4.88;;;;;;;18.20;100.00;102265.03;5072405;28;20036;-65
2023/10/06 09:41:30;;;;;;;18.63;4.90;;;;;;;18.06;100.00;102263.31;5072235;28;20511;-65
2023/10/06 09:44:03;;;;;;;18.52;4.90;;;;;;;18.20;100.00;102265.03;5071724;28;20073;-65
2023/10/06 09:46:34;;;;;;;18.55;4.72;;;;;;;18.46;100.00;102267.56;5072030;28;20033;-63
2023/10/06 09:49:08;;;;;;;19.52;4.80;;;;;;;18.56;100.00;102265.72;5071463;28;20029;-64
2023/10/06 09:51:37;;;;;;;18.05;4.40;;;;;;;18.50;100.00;102266.66;5068043;28;20052;-64
2023/10/06 09:54:05;;;;;;;18.30;4.50;;;;;;;18.77;100.00;102260.22;5071963;28;20024;-66
2023/10/06 09:56:32;;;;;;;15.63;4.07;;;;;;;18.56;100.00;102257.69;5071957;28;20031;-65
2023/10/06 09:58:59;;;;;;;13.68;4.00;;;;;;;18.41;100.00;102259.56;5072275;28;20073;-64
2023/10/06 10:01:26;;;;;;;14.43;4.00;;;;;;;18.37;100.00;102257.81;5072125;28;20032;-68
2023/10/06 10:03:56;;;;;;;16.40;3.97;;;;;;;18.47;100.00;102264.88;5071998;28;20124;-68
2023/10/06 10:06:22;;;;;;;16.38;4.00;;;;;;;18.82;100.00;102258.38;5072247;28;20117;-69
2023/10/06 10:08:51;;;;;;;18.23;4.13;;;;;;;19.02;100.00;102260.06;5072131;28;20107;-68
2023/10/06 10:11:30;;;;;;;16.25;4.10;;;;;;;18.84;100.00;102254.81;5072001;28;20029;-68
2023/10/06 10:14:02;;;;;;;18.10;4.10;;;;;;;18.78;100.00;102253.06;5072072;28;20103;-68
2023/10/06 10:17:07;;;;;;;17.25;4.40;;;;;;;18.58;100.00;102255.88;5072462;28;20036;-69
2023/10/06 10:19:34;;;;;;;16.77;4.30;;;;;;;18.42;100.00;102257.78;5071892;28;20146;-69
2023/10/06 10:21:59;;;;;;;16.67;4.18;;;;;;;18.60;100.00;102260.34;5072058;28;20032;-68
2023/10/06 10:24:26;;;;;;;15.30;3.92;;;;;;;18.64;100.00;102253.19;5072389;28;20036;-67
2023/10/06 10:26:53;;;;;;;18.60;4.10;;;;;;;18.67;100.00;102253.16;5075222;28;20170;-68
2023/10/06 10:29:18;;;;;;;15.93;4.00;;;;;;;18.97;100.00;102245.81;5073976;28;20029;-68
2023/10/06 10:31:51;;;;;;;19.05;4.50;;;;;;;19.02;100.00;102256.47;5075347;28;20035;-69
2023/10/06 10:34:25;;;;;;;18.42;4.50;;;;;;;18.80;100.00;102264.69;5072199;28;20104;-70
2023/10/06 10:37:13;;;;;;;17.95;4.38;;;;;;;18.67;100.00;102252.25;5071811;28;20427;-68
2023/10/06 10:39:40;;;;;;;17.95;4.35;;;;;;;18.62;100.00;102242.50;5070581;28;20020;-71
2023/10/06 10:42:05;;;;;;;20.52;4.93;;;;;;;18.49;100.00;102245.25;5075676;28;20041;-70
2023/10/06 10:44:31;;;;;;;17.83;4.65;;;;;;;18.19;100.00;102241.84;5075002;28;20436;-67
2023/10/06 10:47:02;;;;;;;16.35;4.40;;;;;;;18.75;100.00;102227.19;5074667;28;20521;-67
2023/10/06 10:49:32;;;;;;;18.45;4.65;;;;;;;19.63;100.00;102237.13;5071950;28;20506;-67
2023/10/06 10:52:09;;;;;;;17.33;4.47;;;;;;;20.31;100.00;102243.44;5067040;28;20119;-69
2023/10/06 10:54:39;;;;;;;17.85;4.53;;;;;;;19.76;100.00;102229.81;5073644;28;20054;-68
2023/10/06 10:57:09;;;;;;;18.80;4.57;;;;;;;19.86;100.00;102230.59;5072045;28;20037;-67
2023/10/06 11:00:11;;;;;;;19.67;4.60;;;;;;;20.52;100.00;102239.56;5074812;28;20506;-64
2023/10/06 11:02:49;;;;;;;17.77;4.30;;;;;;;20.86;100.00;102239.91;5072520;28;20067;-68
2023/10/06 11:05:19;;;;;;;16.85;4.43;;;;;;;20.95;100.00;102254.13;5074816;28;20107;-63
2023/10/06 11:08:00;;;;;;;18.17;4.45;;;;;;;20.39;100.00;102252.28;5074875;28;20028;-65
2023/10/06 11:10:26;;;;;;;16.85;4.50;;;;;;;20.06;100.00;102235.72;5071227;28;20384;-65
2023/10/06 11:13:12;;;;;;;16.45;4.53;;;;;;;20.10;100.00;102244.63;5074048;28;20059;-63
2023/10/06 11:15:38;;;;;;;15.82;4.03;;;;;;;19.89;100.00;102243.97;5074599;28;20479;-65
2023/10/06 11:18:06;;;;;;;17.30;4.50;;;;;;;19.81;100.00;102237.84;5074935;28;20040;-63
2023/10/06 11:20:35;;;;;;;18.25;4.40;;;;;;;19.51;100.00;102238.16;5074592;28;20029;-63
2023/10/06 11:23:01;;;;;;;18.48;4.63;;;;;;;19.28;100.00;102230.34;5074310;28;20089;-63
2023/10/06 11:25:32;;;;;;;17.33;4.38;;;;;;;18.98;100.00;102240.44;5074017;28;20052;-67